sensor_id;sensor_type;location;lat;lon;timestamp;P1;durP1;ratioP1;P2;durP2;ratioP2
7398;SDS011;3740;50.700;7.184;2023-06-26T00:00:13;7.35;;;6.75;;
7398;SDS011;3740;50.700;7.184;2023-06-26T00:02:39;7.05;;;6.55;;
7398;SDS011;3740;50.700;7.184;2023-06-26T00:05:05;7.03;;;6.43;;
7398;SDS011;3740;50.700;7.184;2023-06-26T00:07:31;7.22;;;6.63;;
7398;SDS011;3740;50.700;7.184;2023-06-26T00:09:59;7.10;;;6.50;;
7398;SDS011;3740;50.700;7.184;2023-06-26T00:12:25;7.20;;;6.60;;
7398;SDS011;3740;50.700;7.184;2023-06-26T00:14:51;7.78;;;6.85;;
7398;SDS011;3740;50.700;7.184;2023-06-26T00:17:17;7.60;;;6.90;;
7398;SDS011;3740;50.700;7.184;2023-06-26T00:19:43;7.63;;;6.85;;
7398;SDS011;3740;50.700;7.184;2023-06-26T00:22:09;7.13;;;6.53;;
7398;SDS011;3740;50.700;7.184;2023-06-26T00:24:34;7.38;;;6.78;;
7398;SDS011;3740;50.700;7.184;2023-06-26T00:27:00;7.65;;;6.95;;
7398;SDS011;3740;50.700;7.184;2023-06-26T00:29:25;7.43;;;6.75;;
7398;SDS011;3740;50.700;7.184;2023-06-26T00:31:51;7.43;;;6.82;;
7398;SDS011;3740;50.700;7.184;2023-06-26T00:34:16;6.80;;;6.30;;
7398;SDS011;3740;50.700;7.184;2023-06-26T00:36:42;7.72;;;7.03;;
7398;SDS011;3740;50.700;7.184;2023-06-26T00:39:08;7.47;;;6.90;;
7398;SDS011;3740;50.700;7.184;2023-06-26T00:41:35;7.15;;;6.55;;
7398;SDS011;3740;50.700;7.184;2023-06-26T00:44:01;7.45;;;6.75;;
7398;SDS011;3740;50.700;7.184;2023-06-26T00:46:27;6.90;;;6.40;;
7398;SDS011;3740;50.700;7.184;2023-06-26T00:48:53;7.03;;;6.43;;
7398;SDS011;3740;50.700;7.184;2023-06-26T00:51:20;7.55;;;6.95;;
7398;SDS011;3740;50.700;7.184;2023-06-26T00:53:45;7.63;;;6.90;;
7398;SDS011;3740;50.700;7.184;2023-06-26T00:56:12;7.47;;;6.75;;
7398;SDS011;3740;50.700;7.184;2023-06-26T00:58:39;6.82;;;6.32;;
7398;SDS011;3740;50.700;7.184;2023-06-26T01:01:05;7.25;;;6.60;;
7398;SDS011;3740;50.700;7.184;2023-06-26T01:03:33;6.88;;;6.38;;
7398;SDS011;3740;50.700;7.184;2023-06-26T01:05:59;7.53;;;6.93;;
7398;SDS011;3740;50.700;7.184;2023-06-26T01:08:26;7.45;;;6.75;;
7398;SDS011;3740;50.700;7.184;2023-06-26T01:10:52;7.20;;;6.63;;
7398;SDS011;3740;50.700;7.184;2023-06-26T01:13:18;7.63;;;7.03;;
7398;SDS011;3740;50.700;7.184;2023-06-26T01:15:44;7.47;;;6.88;;
7398;SDS011;3740;50.700;7.184;2023-06-26T01:18:11;7.22;;;6.70;;
7398;SDS011;3740;50.700;7.184;2023-06-26T01:20:38;7.35;;;6.75;;
7398;SDS011;3740;50.700;7.184;2023-06-26T01:23:14;7.25;;;6.65;;
7398;SDS011;3740;50.700;7.184;2023-06-26T01:28:37;7.60;;;7.00;;
7398;SDS011;3740;50.700;7.184;2023-06-26T01:31:06;7.05;;;6.45;;
7398;SDS011;3740;50.700;7.184;2023-06-26T01:33:32;7.35;;;6.75;;
7398;SDS011;3740;50.700;7.184;2023-06-26T01:35:59;7.72;;;7.10;;
7398;SDS011;3740;50.700;7.184;2023-06-26T01:38:24;7.45;;;6.85;;
7398;SDS011;3740;50.700;7.184;2023-06-26T01:40:51;7.55;;;6.85;;
7398;SDS011;3740;50.700;7.184;2023-06-26T01:43:31;7.43;;;6.82;;
7398;SDS011;3740;50.700;7.184;2023-06-26T01:46:23;7.10;;;6.50;;
7398;SDS011;3740;50.700;7.184;2023-06-26T01:51:35;7.45;;;6.85;;
7398;SDS011;3740;50.700;7.184;2023-06-26T01:54:10;8.52;;;6.70;;
7398;SDS011;3740;50.700;7.184;2023-06-26T01:56:46;7.22;;;6.63;;
7398;SDS011;3740;50.700;7.184;2023-06-26T01:59:15;8.05;;;7.45;;
7398;SDS011;3740;50.700;7.184;2023-06-26T02:01:42;7.35;;;6.75;;
7398;SDS011;3740;50.700;7.184;2023-06-26T02:04:08;7.57;;;6.97;;
7398;SDS011;3740;50.700;7.184;2023-06-26T02:06:34;7.45;;;6.78;;
7398;SDS011;3740;50.700;7.184;2023-06-26T02:08:59;7.43;;;6.82;;
7398;SDS011;3740;50.700;7.184;2023-06-26T02:11:25;7.30;;;6.70;;
7398;SDS011;3740;50.700;7.184;2023-06-26T02:13:50;7.82;;;7.22;;
7398;SDS011;3740;50.700;7.184;2023-06-26T02:16:16;7.15;;;6.55;;
7398;SDS011;3740;50.700;7.184;2023-06-26T02:18:42;7.65;;;7.05;;
7398;SDS011;3740;50.700;7.184;2023-06-26T02:21:09;7.53;;;6.82;;
7398;SDS011;3740;50.700;7.184;2023-06-26T02:23:34;8.00;;;7.32;;
7398;SDS011;3740;50.700;7.184;2023-06-26T02:26:00;7.50;;;6.90;;
7398;SDS011;3740;50.700;7.184;2023-06-26T02:28:26;7.22;;;6.68;;
7398;SDS011;3740;50.700;7.184;2023-06-26T02:30:51;7.28;;;6.68;;
7398;SDS011;3740;50.700;7.184;2023-06-26T02:33:17;7.20;;;6.60;;
7398;SDS011;3740;50.700;7.184;2023-06-26T02:35:42;8.18;;;7.47;;
7398;SDS011;3740;50.700;7.184;2023-06-26T02:38:08;7.55;;;6.95;;
7398;SDS011;3740;50.700;7.184;2023-06-26T02:40:33;7.47;;;6.88;;
7398;SDS011;3740;50.700;7.184;2023-06-26T02:42:59;7.97;;;7.18;;
7398;SDS011;3740;50.700;7.184;2023-06-26T02:45:24;7.03;;;6.53;;
7398;SDS011;3740;50.700;7.184;2023-06-26T02:47:50;7.38;;;6.82;;
7398;SDS011;3740;50.700;7.184;2023-06-26T02:50:15;7.32;;;6.63;;
7398;SDS011;3740;50.700;7.184;2023-06-26T02:52:41;7.82;;;7.03;;
7398;SDS011;3740;50.700;7.184;2023-06-26T02:55:07;8.27;;;7.57;;
7398;SDS011;3740;50.700;7.184;2023-06-26T02:57:32;7.75;;;7.05;;
7398;SDS011;3740;50.700;7.184;2023-06-26T02:59:58;7.35;;;6.75;;
7398;SDS011;3740;50.700;7.184;2023-06-26T03:02:23;7.95;;;7.35;;
7398;SDS011;3740;50.700;7.184;2023-06-26T03:04:49;7.88;;;7.25;;
7398;SDS011;3740;50.700;7.184;2023-06-26T03:07:15;7.40;;;6.80;;
7398;SDS011;3740;50.700;7.184;2023-06-26T03:09:41;7.32;;;6.72;;
7398;SDS011;3740;50.700;7.184;2023-06-26T03:12:06;7.50;;;6.90;;
7398;SDS011;3740;50.700;7.184;2023-06-26T03:14:32;7.63;;;6.88;;
7398;SDS011;3740;50.700;7.184;2023-06-26T03:16:58;8.43;;;7.65;;
7398;SDS011;3740;50.700;7.184;2023-06-26T03:19:28;7.68;;;6.95;;
7398;SDS011;3740;50.700;7.184;2023-06-26T03:21:53;7.13;;;6.63;;
7398;SDS011;3740;50.700;7.184;2023-06-26T03:24:20;8.02;;;7.32;;
7398;SDS011;3740;50.700;7.184;2023-06-26T03:26:45;7.53;;;6.93;;
7398;SDS011;3740;50.700;7.184;2023-06-26T03:29:11;7.72;;;7.03;;
7398;SDS011;3740;50.700;7.184;2023-06-26T03:31:36;7.70;;;7.00;;
7398;SDS011;3740;50.700;7.184;2023-06-26T03:34:02;7.43;;;6.82;;
7398;SDS011;3740;50.700;7.184;2023-06-26T03:36:28;7.88;;;7.28;;
7398;SDS011;3740;50.700;7.184;2023-06-26T03:38:53;7.78;;;7.18;;
7398;SDS011;3740;50.700;7.184;2023-06-26T03:41:21;9.02;;;7.47;;
7398;SDS011;3740;50.700;7.184;2023-06-26T03:43:48;7.93;;;7.22;;
7398;SDS011;3740;50.700;7.184;2023-06-26T03:46:13;8.10;;;7.40;;
7398;SDS011;3740;50.700;7.184;2023-06-26T03:48:39;7.95;;;7.35;;
7398;SDS011;3740;50.700;7.184;2023-06-26T03:51:05;8.45;;;7.65;;
7398;SDS011;3740;50.700;7.184;2023-06-26T03:53:32;8.13;;;7.38;;
7398;SDS011;3740;50.700;7.184;2023-06-26T03:55:57;8.02;;;7.40;;
7398;SDS011;3740;50.700;7.184;2023-06-26T03:58:23;7.70;;;7.10;;
7398;SDS011;3740;50.700;7.184;2023-06-26T04:00:50;7.70;;;7.10;;
7398;SDS011;3740;50.700;7.184;2023-06-26T04:03:15;7.80;;;7.10;;
7398;SDS011;3740;50.700;7.184;2023-06-26T04:05:41;8.10;;;7.30;;
7398;SDS011;3740;50.700;7.184;2023-06-26T04:08:07;8.13;;;7.43;;
7398;SDS011;3740;50.700;7.184;2023-06-26T04:10:33;7.80;;;7.10;;
7398;SDS011;3740;50.700;7.184;2023-06-26T04:12:58;8.18;;;7.40;;
7398;SDS011;3740;50.700;7.184;2023-06-26T04:15:24;7.65;;;7.05;;
7398;SDS011;3740;50.700;7.184;2023-06-26T04:17:49;7.95;;;7.25;;
7398;SDS011;3740;50.700;7.184;2023-06-26T04:20:15;7.78;;;7.18;;
7398;SDS011;3740;50.700;7.184;2023-06-26T04:22:40;7.07;;;6.47;;
7398;SDS011;3740;50.700;7.184;2023-06-26T04:25:06;7.28;;;6.57;;
7398;SDS011;3740;50.700;7.184;2023-06-26T04:27:32;8.15;;;7.35;;
7398;SDS011;3740;50.700;7.184;2023-06-26T04:29:57;7.57;;;6.95;;
7398;SDS011;3740;50.700;7.184;2023-06-26T04:32:23;7.93;;;7.13;;
7398;SDS011;3740;50.700;7.184;2023-06-26T04:34:48;7.47;;;6.82;;
7398;SDS011;3740;50.700;7.184;2023-06-26T04:37:14;7.00;;;6.40;;
7398;SDS011;3740;50.700;7.184;2023-06-26T04:39:42;7.68;;;6.97;;
7398;SDS011;3740;50.700;7.184;2023-06-26T04:42:08;7.95;;;7.25;;
7398;SDS011;3740;50.700;7.184;2023-06-26T04:44:35;7.43;;;6.78;;
7398;SDS011;3740;50.700;7.184;2023-06-26T04:47:02;7.30;;;6.65;;
7398;SDS011;3740;50.700;7.184;2023-06-26T04:49:28;7.72;;;7.05;;
7398;SDS011;3740;50.700;7.184;2023-06-26T04:51:55;7.75;;;7.03;;
7398;SDS011;3740;50.700;7.184;2023-06-26T04:54:21;7.45;;;6.75;;
7398;SDS011;3740;50.700;7.184;2023-06-26T04:56:47;7.55;;;6.82;;
7398;SDS011;3740;50.700;7.184;2023-06-26T04:59:12;9.02;;;6.97;;
7398;SDS011;3740;50.700;7.184;2023-06-26T05:01:39;7.55;;;6.95;;
7398;SDS011;3740;50.700;7.184;2023-06-26T05:04:05;7.05;;;6.45;;
7398;SDS011;3740;50.700;7.184;2023-06-26T05:06:31;7.75;;;7.15;;
7398;SDS011;3740;50.700;7.184;2023-06-26T05:08:58;7.07;;;6.47;;
7398;SDS011;3740;50.700;7.184;2023-06-26T05:11:24;7.95;;;7.25;;
7398;SDS011;3740;50.700;7.184;2023-06-26T05:13:50;7.60;;;7.00;;
7398;SDS011;3740;50.700;7.184;2023-06-26T05:16:15;7.32;;;6.68;;
7398;SDS011;3740;50.700;7.184;2023-06-26T05:18:41;7.47;;;6.88;;
7398;SDS011;3740;50.700;7.184;2023-06-26T05:21:06;7.38;;;6.78;;
7398;SDS011;3740;50.700;7.184;2023-06-26T05:23:32;8.35;;;7.15;;
7398;SDS011;3740;50.700;7.184;2023-06-26T05:26:02;6.90;;;6.40;;
7398;SDS011;3740;50.700;7.184;2023-06-26T05:28:28;7.80;;;7.20;;
7398;SDS011;3740;50.700;7.184;2023-06-26T05:30:58;7.45;;;6.75;;
7398;SDS011;3740;50.700;7.184;2023-06-26T05:33:24;8.07;;;7.35;;
7398;SDS011;3740;50.700;7.184;2023-06-26T05:35:54;8.32;;;7.53;;
7398;SDS011;3740;50.700;7.184;2023-06-26T05:38:20;6.80;;;6.22;;
7398;SDS011;3740;50.700;7.184;2023-06-26T05:40:46;7.15;;;6.50;;
7398;SDS011;3740;50.700;7.184;2023-06-26T05:43:12;6.75;;;6.05;;
7398;SDS011;3740;50.700;7.184;2023-06-26T05:45:37;8.27;;;6.15;;
7398;SDS011;3740;50.700;7.184;2023-06-26T05:48:03;6.45;;;5.82;;
7398;SDS011;3740;50.700;7.184;2023-06-26T05:50:29;6.40;;;5.80;;
7398;SDS011;3740;50.700;7.184;2023-06-26T05:52:55;6.75;;;6.10;;
7398;SDS011;3740;50.700;7.184;2023-06-26T05:55:21;6.43;;;5.82;;
7398;SDS011;3740;50.700;7.184;2023-06-26T05:57:47;8.13;;;6.10;;
7398;SDS011;3740;50.700;7.184;2023-06-26T06:00:14;8.15;;;5.90;;
7398;SDS011;3740;50.700;7.184;2023-06-26T06:02:41;6.65;;;5.75;;
7398;SDS011;3740;50.700;7.184;2023-06-26T06:05:08;5.70;;;5.20;;
7398;SDS011;3740;50.700;7.184;2023-06-26T06:07:34;6.13;;;5.50;;
7398;SDS011;3740;50.700;7.184;2023-06-26T06:10:01;6.18;;;5.50;;
7398;SDS011;3740;50.700;7.184;2023-06-26T06:12:28;5.90;;;5.40;;
7398;SDS011;3740;50.700;7.184;2023-06-26T06:14:55;6.10;;;5.55;;
7398;SDS011;3740;50.700;7.184;2023-06-26T06:17:20;5.90;;;5.40;;
7398;SDS011;3740;50.700;7.184;2023-06-26T06:19:46;6.38;;;5.72;;
7398;SDS011;3740;50.700;7.184;2023-06-26T06:22:12;5.85;;;5.35;;
7398;SDS011;3740;50.700;7.184;2023-06-26T06:24:38;6.47;;;5.88;;
7398;SDS011;3740;50.700;7.184;2023-06-26T06:27:04;7.85;;;5.53;;
7398;SDS011;3740;50.700;7.184;2023-06-26T06:29:29;6.18;;;5.57;;
7398;SDS011;3740;50.700;7.184;2023-06-26T06:31:55;5.95;;;5.40;;
7398;SDS011;3740;50.700;7.184;2023-06-26T06:34:21;6.20;;;5.22;;
7398;SDS011;3740;50.700;7.184;2023-06-26T06:36:47;6.03;;;5.38;;
7398;SDS011;3740;50.700;7.184;2023-06-26T06:39:12;6.28;;;5.50;;
7398;SDS011;3740;50.700;7.184;2023-06-26T06:41:38;6.72;;;5.32;;
7398;SDS011;3740;50.700;7.184;2023-06-26T06:44:03;6.60;;;5.43;;
7398;SDS011;3740;50.700;7.184;2023-06-26T06:46:29;8.52;;;5.80;;
7398;SDS011;3740;50.700;7.184;2023-06-26T06:48:55;7.20;;;5.40;;
7398;SDS011;3740;50.700;7.184;2023-06-26T06:51:21;9.15;;;5.88;;
7398;SDS011;3740;50.700;7.184;2023-06-26T06:53:47;6.53;;;5.13;;
7398;SDS011;3740;50.700;7.184;2023-06-26T06:56:12;7.55;;;5.25;;
7398;SDS011;3740;50.700;7.184;2023-06-26T06:58:38;8.05;;;5.38;;
7398;SDS011;3740;50.700;7.184;2023-06-26T07:01:07;7.25;;;5.65;;
7398;SDS011;3740;50.700;7.184;2023-06-26T07:03:34;16.58;;;7.10;;
7398;SDS011;3740;50.700;7.184;2023-06-26T07:05:59;15.88;;;6.40;;
7398;SDS011;3740;50.700;7.184;2023-06-26T07:08:25;7.50;;;5.00;;
7398;SDS011;3740;50.700;7.184;2023-06-26T07:10:50;7.72;;;5.57;;
7398;SDS011;3740;50.700;7.184;2023-06-26T07:13:16;8.07;;;5.47;;
7398;SDS011;3740;50.700;7.184;2023-06-26T07:15:41;7.55;;;5.05;;
7398;SDS011;3740;50.700;7.184;2023-06-26T07:18:07;8.88;;;5.93;;
7398;SDS011;3740;50.700;7.184;2023-06-26T07:20:33;6.40;;;5.20;;
7398;SDS011;3740;50.700;7.184;2023-06-26T07:22:58;8.05;;;5.20;;
7398;SDS011;3740;50.700;7.184;2023-06-26T07:25:24;7.43;;;5.32;;
7398;SDS011;3740;50.700;7.184;2023-06-26T07:27:50;7.97;;;5.07;;
7398;SDS011;3740;50.700;7.184;2023-06-26T07:30:15;7.25;;;5.50;;
7398;SDS011;3740;50.700;7.184;2023-06-26T07:32:41;6.90;;;5.28;;
7398;SDS011;3740;50.700;7.184;2023-06-26T07:35:07;7.15;;;5.38;;
7398;SDS011;3740;50.700;7.184;2023-06-26T07:37:33;7.22;;;5.32;;
7398;SDS011;3740;50.700;7.184;2023-06-26T07:39:58;5.72;;;4.78;;
7398;SDS011;3740;50.700;7.184;2023-06-26T07:42:24;8.57;;;5.60;;
7398;SDS011;3740;50.700;7.184;2023-06-26T07:44:49;6.30;;;5.20;;
7398;SDS011;3740;50.700;7.184;2023-06-26T07:47:15;8.35;;;5.65;;
7398;SDS011;3740;50.700;7.184;2023-06-26T07:49:40;9.43;;;5.72;;
7398;SDS011;3740;50.700;7.184;2023-06-26T07:52:06;33.28;;;10.60;;
7398;SDS011;3740;50.700;7.184;2023-06-26T07:54:32;7.22;;;5.60;;
7398;SDS011;3740;50.700;7.184;2023-06-26T07:56:58;10.88;;;6.47;;
7398;SDS011;3740;50.700;7.184;2023-06-26T07:59:25;9.13;;;5.55;;
7398;SDS011;3740;50.700;7.184;2023-06-26T08:01:53;7.47;;;5.40;;
7398;SDS011;3740;50.700;7.184;2023-06-26T08:04:20;6.38;;;5.30;;
7398;SDS011;3740;50.700;7.184;2023-06-26T08:06:50;6.22;;;5.63;;
7398;SDS011;3740;50.700;7.184;2023-06-26T08:09:18;9.68;;;6.18;;
7398;SDS011;3740;50.700;7.184;2023-06-26T08:11:45;6.03;;;5.18;;
7398;SDS011;3740;50.700;7.184;2023-06-26T08:14:11;8.07;;;6.20;;
7398;SDS011;3740;50.700;7.184;2023-06-26T08:16:40;7.35;;;6.18;;
7398;SDS011;3740;50.700;7.184;2023-06-26T08:19:06;7.55;;;5.55;;
7398;SDS011;3740;50.700;7.184;2023-06-26T08:21:32;8.27;;;6.32;;
7398;SDS011;3740;50.700;7.184;2023-06-26T08:23:58;9.68;;;6.70;;
7398;SDS011;3740;50.700;7.184;2023-06-26T08:26:23;8.45;;;6.13;;
7398;SDS011;3740;50.700;7.184;2023-06-26T08:28:49;7.78;;;6.20;;
7398;SDS011;3740;50.700;7.184;2023-06-26T08:31:14;9.20;;;5.88;;
7398;SDS011;3740;50.700;7.184;2023-06-26T08:33:40;8.18;;;5.80;;
7398;SDS011;3740;50.700;7.184;2023-06-26T08:36:06;19.38;;;9.00;;
7398;SDS011;3740;50.700;7.184;2023-06-26T08:38:32;20.08;;;7.90;;
7398;SDS011;3740;50.700;7.184;2023-06-26T08:40:57;37.63;;;10.15;;
7398;SDS011;3740;50.700;7.184;2023-06-26T08:43:23;7.15;;;5.53;;
7398;SDS011;3740;50.700;7.184;2023-06-26T08:45:49;6.82;;;5.20;;
7398;SDS011;3740;50.700;7.184;2023-06-26T08:48:18;8.20;;;5.45;;
7398;SDS011;3740;50.700;7.184;2023-06-26T08:50:47;7.55;;;5.55;;
7398;SDS011;3740;50.700;7.184;2023-06-26T08:55:55;7.22;;;5.28;;
7398;SDS011;3740;50.700;7.184;2023-06-26T08:58:23;8.70;;;6.05;;
7398;SDS011;3740;50.700;7.184;2023-06-26T09:00:48;6.72;;;5.30;;
7398;SDS011;3740;50.700;7.184;2023-06-26T09:03:14;7.10;;;5.00;;
7398;SDS011;3740;50.700;7.184;2023-06-26T09:05:40;8.80;;;4.88;;
7398;SDS011;3740;50.700;7.184;2023-06-26T09:08:07;6.85;;;5.32;;
7398;SDS011;3740;50.700;7.184;2023-06-26T09:10:33;7.15;;;5.20;;
7398;SDS011;3740;50.700;7.184;2023-06-26T09:12:58;6.95;;;4.90;;
7398;SDS011;3740;50.700;7.184;2023-06-26T09:15:26;6.93;;;4.60;;
7398;SDS011;3740;50.700;7.184;2023-06-26T09:17:55;6.95;;;4.53;;
7398;SDS011;3740;50.700;7.184;2023-06-26T09:20:22;8.23;;;5.30;;
7398;SDS011;3740;50.700;7.184;2023-06-26T09:22:48;6.55;;;4.97;;
7398;SDS011;3740;50.700;7.184;2023-06-26T09:25:13;8.60;;;5.25;;
7398;SDS011;3740;50.700;7.184;2023-06-26T09:27:39;8.90;;;4.78;;
7398;SDS011;3740;50.700;7.184;2023-06-26T09:30:07;24.63;;;8.38;;
7398;SDS011;3740;50.700;7.184;2023-06-26T09:32:34;5.63;;;4.72;;
7398;SDS011;3740;50.700;7.184;2023-06-26T09:35:01;7.43;;;4.53;;
7398;SDS011;3740;50.700;7.184;2023-06-26T09:37:28;12.15;;;5.35;;
7398;SDS011;3740;50.700;7.184;2023-06-26T09:39:53;13.77;;;5.65;;
7398;SDS011;3740;50.700;7.184;2023-06-26T09:42:19;8.32;;;4.60;;
7398;SDS011;3740;50.700;7.184;2023-06-26T09:44:45;6.18;;;4.65;;
7398;SDS011;3740;50.700;7.184;2023-06-26T09:47:16;5.82;;;4.50;;
7398;SDS011;3740;50.700;7.184;2023-06-26T09:49:43;6.88;;;4.03;;
7398;SDS011;3740;50.700;7.184;2023-06-26T09:52:09;7.85;;;4.30;;
7398;SDS011;3740;50.700;7.184;2023-06-26T09:54:35;14.48;;;5.97;;
7398;SDS011;3740;50.700;7.184;2023-06-26T09:57:11;7.88;;;4.30;;
7398;SDS011;3740;50.700;7.184;2023-06-26T09:59:38;26.88;;;7.80;;
7398;SDS011;3740;50.700;7.184;2023-06-26T10:02:08;9.07;;;4.43;;
7398;SDS011;3740;50.700;7.184;2023-06-26T10:04:36;4.38;;;3.90;;
7398;SDS011;3740;50.700;7.184;2023-06-26T10:07:04;4.78;;;3.45;;
7398;SDS011;3740;50.700;7.184;2023-06-26T10:09:31;8.52;;;5.20;;
7398;SDS011;3740;50.700;7.184;2023-06-26T10:14:34;6.07;;;3.88;;
7398;SDS011;3740;50.700;7.184;2023-06-26T10:17:01;6.28;;;3.75;;
7398;SDS011;3740;50.700;7.184;2023-06-26T10:19:34;9.35;;;3.97;;
7398;SDS011;3740;50.700;7.184;2023-06-26T10:22:02;7.25;;;3.58;;
7398;SDS011;3740;50.700;7.184;2023-06-26T10:24:29;6.22;;;4.07;;
7398;SDS011;3740;50.700;7.184;2023-06-26T10:27:02;5.60;;;3.63;;
7398;SDS011;3740;50.700;7.184;2023-06-26T10:29:33;5.28;;;3.35;;
7398;SDS011;3740;50.700;7.184;2023-06-26T10:32:00;4.38;;;3.50;;
7398;SDS011;3740;50.700;7.184;2023-06-26T10:34:28;7.60;;;3.67;;
7398;SDS011;3740;50.700;7.184;2023-06-26T10:37:01;4.93;;;3.38;;
7398;SDS011;3740;50.700;7.184;2023-06-26T10:39:32;5.38;;;3.40;;
7398;SDS011;3740;50.700;7.184;2023-06-26T10:42:12;7.25;;;3.45;;
7398;SDS011;3740;50.700;7.184;2023-06-26T10:44:45;6.75;;;3.35;;
7398;SDS011;3740;50.700;7.184;2023-06-26T10:47:28;4.65;;;3.30;;
7398;SDS011;3740;50.700;7.184;2023-06-26T10:50:19;7.32;;;3.95;;
7398;SDS011;3740;50.700;7.184;2023-06-26T10:53:06;15.15;;;4.90;;
7398;SDS011;3740;50.700;7.184;2023-06-26T10:55:37;5.95;;;3.20;;
7398;SDS011;3740;50.700;7.184;2023-06-26T10:58:12;6.15;;;3.25;;
7398;SDS011;3740;50.700;7.184;2023-06-26T11:00:52;5.97;;;3.13;;
7398;SDS011;3740;50.700;7.184;2023-06-26T11:03:39;7.05;;;2.95;;
7398;SDS011;3740;50.700;7.184;2023-06-26T11:06:28;4.63;;;2.97;;
7398;SDS011;3740;50.700;7.184;2023-06-26T11:08:59;4.15;;;3.05;;
7398;SDS011;3740;50.700;7.184;2023-06-26T11:14:23;4.25;;;2.50;;
7398;SDS011;3740;50.700;7.184;2023-06-26T11:16:51;3.35;;;2.55;;
7398;SDS011;3740;50.700;7.184;2023-06-26T11:19:17;8.07;;;3.40;;
7398;SDS011;3740;50.700;7.184;2023-06-26T11:21:44;4.00;;;2.45;;
7398;SDS011;3740;50.700;7.184;2023-06-26T11:24:10;5.72;;;2.80;;
7398;SDS011;3740;50.700;7.184;2023-06-26T11:26:40;3.13;;;2.53;;
7398;SDS011;3740;50.700;7.184;2023-06-26T11:29:07;5.43;;;2.75;;
7398;SDS011;3740;50.700;7.184;2023-06-26T11:31:34;5.85;;;2.70;;
7398;SDS011;3740;50.700;7.184;2023-06-26T11:34:02;6.28;;;3.00;;
7398;SDS011;3740;50.700;7.184;2023-06-26T11:36:29;3.10;;;2.75;;
7398;SDS011;3740;50.700;7.184;2023-06-26T11:38:56;5.18;;;2.67;;
7398;SDS011;3740;50.700;7.184;2023-06-26T11:41:23;4.28;;;2.63;;
7398;SDS011;3740;50.700;7.184;2023-06-26T11:43:51;6.60;;;3.05;;
7398;SDS011;3740;50.700;7.184;2023-06-26T11:46:18;6.18;;;2.90;;
7398;SDS011;3740;50.700;7.184;2023-06-26T11:48:45;8.05;;;3.17;;
7398;SDS011;3740;50.700;7.184;2023-06-26T11:51:14;4.75;;;2.90;;
7398;SDS011;3740;50.700;7.184;2023-06-26T11:53:40;6.07;;;3.05;;
7398;SDS011;3740;50.700;7.184;2023-06-26T11:56:08;5.60;;;3.10;;
7398;SDS011;3740;50.700;7.184;2023-06-26T12:01:31;4.50;;;2.58;;
7398;SDS011;3740;50.700;7.184;2023-06-26T12:03:59;4.90;;;3.00;;
7398;SDS011;3740;50.700;7.184;2023-06-26T12:06:26;4.47;;;2.65;;
7398;SDS011;3740;50.700;7.184;2023-06-26T12:08:53;5.03;;;2.70;;
7398;SDS011;3740;50.700;7.184;2023-06-26T12:11:19;6.68;;;3.17;;
7398;SDS011;3740;50.700;7.184;2023-06-26T12:13:48;4.93;;;2.70;;
7398;SDS011;3740;50.700;7.184;2023-06-26T12:16:14;5.68;;;3.10;;
7398;SDS011;3740;50.700;7.184;2023-06-26T12:18:39;7.03;;;2.90;;
7398;SDS011;3740;50.700;7.184;2023-06-26T12:21:05;4.40;;;2.95;;
7398;SDS011;3740;50.700;7.184;2023-06-26T12:23:38;4.32;;;2.92;;
7398;SDS011;3740;50.700;7.184;2023-06-26T12:26:19;18.83;;;5.18;;
7398;SDS011;3740;50.700;7.184;2023-06-26T12:28:46;4.43;;;2.85;;
7398;SDS011;3740;50.700;7.184;2023-06-26T12:31:13;5.78;;;2.80;;
7398;SDS011;3740;50.700;7.184;2023-06-26T12:33:39;3.83;;;2.83;;
7398;SDS011;3740;50.700;7.184;2023-06-26T12:36:05;3.53;;;2.40;;
7398;SDS011;3740;50.700;7.184;2023-06-26T12:41:00;3.10;;;2.40;;
7398;SDS011;3740;50.700;7.184;2023-06-26T12:43:26;4.88;;;2.58;;
7398;SDS011;3740;50.700;7.184;2023-06-26T12:45:55;4.22;;;2.50;;
7398;SDS011;3740;50.700;7.184;2023-06-26T12:48:21;5.45;;;2.80;;
7398;SDS011;3740;50.700;7.184;2023-06-26T12:50:47;3.25;;;2.30;;
7398;SDS011;3740;50.700;7.184;2023-06-26T12:53:15;1.90;;;1.80;;
7398;SDS011;3740;50.700;7.184;2023-06-26T12:55:41;5.45;;;2.95;;
7398;SDS011;3740;50.700;7.184;2023-06-26T12:58:06;4.35;;;2.70;;
7398;SDS011;3740;50.700;7.184;2023-06-26T13:00:32;5.57;;;3.15;;
7398;SDS011;3740;50.700;7.184;2023-06-26T13:02:58;3.92;;;2.35;;
7398;SDS011;3740;50.700;7.184;2023-06-26T13:05:24;3.28;;;2.75;;
7398;SDS011;3740;50.700;7.184;2023-06-26T13:07:49;5.72;;;2.72;;
7398;SDS011;3740;50.700;7.184;2023-06-26T13:10:15;3.33;;;2.55;;
7398;SDS011;3740;50.700;7.184;2023-06-26T13:12:41;3.88;;;2.47;;
7398;SDS011;3740;50.700;7.184;2023-06-26T13:15:07;4.50;;;2.65;;
7398;SDS011;3740;50.700;7.184;2023-06-26T13:17:33;4.20;;;2.58;;
7398;SDS011;3740;50.700;7.184;2023-06-26T13:19:59;5.25;;;2.65;;
7398;SDS011;3740;50.700;7.184;2023-06-26T13:22:24;6.15;;;3.05;;
7398;SDS011;3740;50.700;7.184;2023-06-26T13:24:50;4.63;;;3.08;;
7398;SDS011;3740;50.700;7.184;2023-06-26T13:27:16;5.22;;;2.90;;
7398;SDS011;3740;50.700;7.184;2023-06-26T13:29:41;5.35;;;3.03;;
7398;SDS011;3740;50.700;7.184;2023-06-26T13:32:07;4.47;;;2.65;;
7398;SDS011;3740;50.700;7.184;2023-06-26T13:34:33;4.20;;;2.70;;
7398;SDS011;3740;50.700;7.184;2023-06-26T13:36:58;3.80;;;2.83;;
7398;SDS011;3740;50.700;7.184;2023-06-26T13:39:27;5.72;;;2.80;;
7398;SDS011;3740;50.700;7.184;2023-06-26T13:41:52;3.30;;;2.60;;
7398;SDS011;3740;50.700;7.184;2023-06-26T13:44:18;5.10;;;2.88;;
7398;SDS011;3740;50.700;7.184;2023-06-26T13:46:43;4.13;;;2.53;;
7398;SDS011;3740;50.700;7.184;2023-06-26T13:49:09;4.47;;;2.60;;
7398;SDS011;3740;50.700;7.184;2023-06-26T13:51:35;3.97;;;2.58;;
7398;SDS011;3740;50.700;7.184;2023-06-26T13:54:00;4.03;;;2.90;;
7398;SDS011;3740;50.700;7.184;2023-06-26T13:56:26;5.88;;;2.90;;
7398;SDS011;3740;50.700;7.184;2023-06-26T13:58:51;3.30;;;2.30;;
7398;SDS011;3740;50.700;7.184;2023-06-26T14:01:18;3.70;;;2.72;;
7398;SDS011;3740;50.700;7.184;2023-06-26T14:03:44;5.53;;;2.95;;
7398;SDS011;3740;50.700;7.184;2023-06-26T14:06:10;4.72;;;2.50;;
7398;SDS011;3740;50.700;7.184;2023-06-26T14:08:35;5.22;;;2.67;;
7398;SDS011;3740;50.700;7.184;2023-06-26T14:11:01;5.68;;;2.40;;
7398;SDS011;3740;50.700;7.184;2023-06-26T14:13:27;5.38;;;2.63;;
7398;SDS011;3740;50.700;7.184;2023-06-26T14:15:52;4.90;;;2.42;;
7398;SDS011;3740;50.700;7.184;2023-06-26T14:18:18;6.00;;;2.45;;
7398;SDS011;3740;50.700;7.184;2023-06-26T14:20:44;4.22;;;2.33;;
7398;SDS011;3740;50.700;7.184;2023-06-26T14:23:09;6.30;;;2.75;;
7398;SDS011;3740;50.700;7.184;2023-06-26T14:25:35;4.50;;;2.28;;
7398;SDS011;3740;50.700;7.184;2023-06-26T14:28:01;5.18;;;2.50;;
7398;SDS011;3740;50.700;7.184;2023-06-26T14:30:27;6.32;;;2.33;;
7398;SDS011;3740;50.700;7.184;2023-06-26T14:32:52;3.55;;;2.50;;
7398;SDS011;3740;50.700;7.184;2023-06-26T14:35:18;5.35;;;2.33;;
7398;SDS011;3740;50.700;7.184;2023-06-26T14:37:43;4.50;;;2.35;;
7398;SDS011;3740;50.700;7.184;2023-06-26T14:40:09;4.55;;;2.65;;
7398;SDS011;3740;50.700;7.184;2023-06-26T14:42:35;8.00;;;2.58;;
7398;SDS011;3740;50.700;7.184;2023-06-26T14:45:01;5.38;;;2.17;;
7398;SDS011;3740;50.700;7.184;2023-06-26T14:47:28;5.70;;;2.40;;
7398;SDS011;3740;50.700;7.184;2023-06-26T14:49:53;7.13;;;2.42;;
7398;SDS011;3740;50.700;7.184;2023-06-26T14:52:19;4.13;;;2.00;;
7398;SDS011;3740;50.700;7.184;2023-06-26T14:54:44;3.83;;;2.40;;
7398;SDS011;3740;50.700;7.184;2023-06-26T14:57:10;5.03;;;2.38;;
7398;SDS011;3740;50.700;7.184;2023-06-26T14:59:35;5.88;;;2.35;;
7398;SDS011;3740;50.700;7.184;2023-06-26T15:02:01;4.82;;;2.50;;
7398;SDS011;3740;50.700;7.184;2023-06-26T15:04:27;4.07;;;2.08;;
7398;SDS011;3740;50.700;7.184;2023-06-26T15:06:52;4.75;;;2.03;;
7398;SDS011;3740;50.700;7.184;2023-06-26T15:09:18;3.78;;;2.40;;
7398;SDS011;3740;50.700;7.184;2023-06-26T15:11:44;6.35;;;2.70;;
7398;SDS011;3740;50.700;7.184;2023-06-26T15:14:09;4.40;;;2.50;;
7398;SDS011;3740;50.700;7.184;2023-06-26T15:16:35;3.10;;;2.17;;
7398;SDS011;3740;50.700;7.184;2023-06-26T15:19:00;4.13;;;2.50;;
7398;SDS011;3740;50.700;7.184;2023-06-26T15:21:26;3.40;;;2.20;;
7398;SDS011;3740;50.700;7.184;2023-06-26T15:23:51;6.15;;;2.40;;
7398;SDS011;3740;50.700;7.184;2023-06-26T15:26:17;3.72;;;2.60;;
7398;SDS011;3740;50.700;7.184;2023-06-26T15:28:43;6.25;;;2.72;;
7398;SDS011;3740;50.700;7.184;2023-06-26T15:31:08;2.67;;;2.22;;